sensor_id;sensor_type;location;lat;lon;timestamp;P1;durP1;ratioP1;P2;durP2;ratioP2
68792;SDS011;55778;54.346;10.210;2023-09-08T00:00:36;16.67;;;10.63;;
68792;SDS011;55778;54.346;10.210;2023-09-08T00:03:02;14.90;;;9.88;;
68792;SDS011;55778;54.346;10.210;2023-09-08T00:05:28;14.02;;;9.98;;
68792;SDS011;55778;54.346;10.210;2023-09-08T00:07:53;15.20;;;9.48;;
68792;SDS011;55778;54.346;10.210;2023-09-08T00:10:18;13.20;;;10.30;;
68792;SDS011;55778;54.346;10.210;2023-09-08T00:12:44;16.83;;;9.95;;
68792;SDS011;55778;54.346;10.210;2023-09-08T00:15:09;17.38;;;10.10;;
68792;SDS011;55778;54.346;10.210;2023-09-08T00:17:35;16.83;;;11.45;;
68792;SDS011;55778;54.346;10.210;2023-09-08T00:20:01;17.52;;;10.90;;
68792;SDS011;55778;54.346;10.210;2023-09-08T00:22:30;18.67;;;12.88;;
68792;SDS011;55778;54.346;10.210;2023-09-08T00:24:56;18.38;;;11.80;;
68792;SDS011;55778;54.346;10.210;2023-09-08T00:27:21;17.15;;;11.20;;
68792;SDS011;55778;54.346;10.210;2023-09-08T00:29:46;16.40;;;11.82;;
68792;SDS011;55778;54.346;10.210;2023-09-08T00:32:12;17.13;;;12.00;;
68792;SDS011;55778;54.346;10.210;2023-09-08T00:34:37;16.17;;;12.05;;
68792;SDS011;55778;54.346;10.210;2023-09-08T00:37:05;14.90;;;11.15;;
68792;SDS011;55778;54.346;10.210;2023-09-08T00:39:34;16.63;;;11.93;;
68792;SDS011;55778;54.346;10.210;2023-09-08T00:42:00;18.30;;;12.15;;
68792;SDS011;55778;54.346;10.210;2023-09-08T00:44:25;16.45;;;11.52;;
68792;SDS011;55778;54.346;10.210;2023-09-08T00:46:51;15.38;;;11.95;;
68792;SDS011;55778;54.346;10.210;2023-09-08T00:49:16;18.08;;;11.98;;
68792;SDS011;55778;54.346;10.210;2023-09-08T00:51:42;17.85;;;13.05;;
68792;SDS011;55778;54.346;10.210;2023-09-08T00:54:07;17.58;;;12.07;;
68792;SDS011;55778;54.346;10.210;2023-09-08T00:56:33;22.38;;;13.18;;
68792;SDS011;55778;54.346;10.210;2023-09-08T00:58:59;17.40;;;12.77;;
68792;SDS011;55778;54.346;10.210;2023-09-08T01:01:25;17.70;;;12.32;;
68792;SDS011;55778;54.346;10.210;2023-09-08T01:03:50;16.65;;;12.05;;
68792;SDS011;55778;54.346;10.210;2023-09-08T01:06:16;15.20;;;11.73;;
68792;SDS011;55778;54.346;10.210;2023-09-08T01:08:42;16.98;;;12.30;;
68792;SDS011;55778;54.346;10.210;2023-09-08T01:11:08;16.20;;;12.18;;
68792;SDS011;55778;54.346;10.210;2023-09-08T01:13:34;14.20;;;11.20;;
68792;SDS011;55778;54.346;10.210;2023-09-08T01:16:00;16.25;;;11.02;;
68792;SDS011;55778;54.346;10.210;2023-09-08T01:18:26;16.38;;;11.75;;
68792;SDS011;55778;54.346;10.210;2023-09-08T01:26:10;17.83;;;12.10;;
68792;SDS011;55778;54.346;10.210;2023-09-08T01:28:43;17.00;;;12.50;;
68792;SDS011;55778;54.346;10.210;2023-09-08T01:31:13;18.33;;;12.82;;
68792;SDS011;55778;54.346;10.210;2023-09-08T01:33:40;20.23;;;12.57;;
68792;SDS011;55778;54.346;10.210;2023-09-08T01:36:06;17.38;;;12.00;;
68792;SDS011;55778;54.346;10.210;2023-09-08T01:38:32;17.27;;;12.05;;
68792;SDS011;55778;54.346;10.210;2023-09-08T01:40:58;15.23;;;11.30;;
68792;SDS011;55778;54.346;10.210;2023-09-08T01:43:23;15.13;;;11.27;;
68792;SDS011;55778;54.346;10.210;2023-09-08T01:45:49;16.65;;;12.18;;
68792;SDS011;55778;54.346;10.210;2023-09-08T01:48:14;15.65;;;12.38;;
68792;SDS011;55778;54.346;10.210;2023-09-08T01:50:40;17.40;;;12.18;;
68792;SDS011;55778;54.346;10.210;2023-09-08T01:53:05;19.92;;;13.07;;
68792;SDS011;55778;54.346;10.210;2023-09-08T01:55:30;16.85;;;12.68;;
68792;SDS011;55778;54.346;10.210;2023-09-08T01:57:56;16.60;;;12.18;;
68792;SDS011;55778;54.346;10.210;2023-09-08T02:00:21;17.52;;;12.77;;
68792;SDS011;55778;54.346;10.210;2023-09-08T02:02:46;19.40;;;13.15;;
68792;SDS011;55778;54.346;10.210;2023-09-08T02:05:12;19.27;;;13.18;;
68792;SDS011;55778;54.346;10.210;2023-09-08T02:07:37;17.25;;;12.32;;
68792;SDS011;55778;54.346;10.210;2023-09-08T02:10:03;16.02;;;12.18;;
68792;SDS011;55778;54.346;10.210;2023-09-08T02:12:28;15.70;;;12.20;;
68792;SDS011;55778;54.346;10.210;2023-09-08T02:14:53;15.40;;;11.02;;
68792;SDS011;55778;54.346;10.210;2023-09-08T02:17:19;16.33;;;12.23;;
68792;SDS011;55778;54.346;10.210;2023-09-08T02:19:44;13.88;;;10.32;;
68792;SDS011;55778;54.346;10.210;2023-09-08T02:22:10;16.10;;;12.68;;
68792;SDS011;55778;54.346;10.210;2023-09-08T02:24:35;19.60;;;13.90;;
68792;SDS011;55778;54.346;10.210;2023-09-08T02:27:01;19.80;;;13.95;;
68792;SDS011;55778;54.346;10.210;2023-09-08T02:29:26;18.70;;;12.75;;
68792;SDS011;55778;54.346;10.210;2023-09-08T02:31:52;19.10;;;12.57;;
68792;SDS011;55778;54.346;10.210;2023-09-08T02:34:17;16.20;;;11.23;;
68792;SDS011;55778;54.346;10.210;2023-09-08T02:36:43;16.75;;;11.50;;
68792;SDS011;55778;54.346;10.210;2023-09-08T02:39:08;13.10;;;10.48;;
68792;SDS011;55778;54.346;10.210;2023-09-08T02:41:33;16.10;;;10.82;;
68792;SDS011;55778;54.346;10.210;2023-09-08T02:43:59;13.60;;;10.82;;
68792;SDS011;55778;54.346;10.210;2023-09-08T02:46:24;15.18;;;10.98;;
68792;SDS011;55778;54.346;10.210;2023-09-08T02:48:50;19.00;;;12.50;;
68792;SDS011;55778;54.346;10.210;2023-09-08T02:51:16;20.63;;;15.77;;
68792;SDS011;55778;54.346;10.210;2023-09-08T02:53:41;19.40;;;13.15;;
68792;SDS011;55778;54.346;10.210;2023-09-08T02:56:07;19.70;;;12.55;;
68792;SDS011;55778;54.346;10.210;2023-09-08T02:58:34;15.15;;;11.52;;
68792;SDS011;55778;54.346;10.210;2023-09-08T03:01:15;16.38;;;11.98;;
68792;SDS011;55778;54.346;10.210;2023-09-08T03:03:45;16.55;;;11.43;;
68792;SDS011;55778;54.346;10.210;2023-09-08T03:06:11;20.45;;;14.10;;
68792;SDS011;55778;54.346;10.210;2023-09-08T03:08:36;26.00;;;17.75;;
68792;SDS011;55778;54.346;10.210;2023-09-08T03:11:02;16.40;;;11.95;;
68792;SDS011;55778;54.346;10.210;2023-09-08T03:13:28;17.77;;;12.15;;
68792;SDS011;55778;54.346;10.210;2023-09-08T03:15:54;16.17;;;11.50;;
68792;SDS011;55778;54.346;10.210;2023-09-08T03:18:20;15.23;;;11.73;;
68792;SDS011;55778;54.346;10.210;2023-09-08T03:20:49;14.50;;;11.68;;
68792;SDS011;55778;54.346;10.210;2023-09-08T03:23:15;16.25;;;12.35;;
68792;SDS011;55778;54.346;10.210;2023-09-08T03:25:41;18.23;;;12.75;;
68792;SDS011;55778;54.346;10.210;2023-09-08T03:28:07;15.70;;;12.30;;
68792;SDS011;55778;54.346;10.210;2023-09-08T03:30:32;15.10;;;11.45;;
68792;SDS011;55778;54.346;10.210;2023-09-08T03:32:57;17.63;;;11.35;;
68792;SDS011;55778;54.346;10.210;2023-09-08T03:35:23;17.73;;;13.00;;
68792;SDS011;55778;54.346;10.210;2023-09-08T03:37:48;16.42;;;12.63;;
68792;SDS011;55778;54.346;10.210;2023-09-08T03:40:14;22.55;;;15.27;;
68792;SDS011;55778;54.346;10.210;2023-09-08T03:42:39;44.83;;;27.63;;
68792;SDS011;55778;54.346;10.210;2023-09-08T03:45:07;18.33;;;13.85;;
68792;SDS011;55778;54.346;10.210;2023-09-08T03:47:33;16.88;;;12.95;;
68792;SDS011;55778;54.346;10.210;2023-09-08T03:49:58;17.33;;;12.40;;
68792;SDS011;55778;54.346;10.210;2023-09-08T03:52:23;26.23;;;17.75;;
68792;SDS011;55778;54.346;10.210;2023-09-08T03:54:50;20.52;;;13.75;;
68792;SDS011;55778;54.346;10.210;2023-09-08T03:57:15;17.80;;;12.43;;
68792;SDS011;55778;54.346;10.210;2023-09-08T03:59:40;15.00;;;11.73;;
68792;SDS011;55778;54.346;10.210;2023-09-08T04:02:06;15.38;;;11.60;;
68792;SDS011;55778;54.346;10.210;2023-09-08T04:04:31;16.17;;;12.23;;
68792;SDS011;55778;54.346;10.210;2023-09-08T04:06:56;19.50;;;13.70;;
68792;SDS011;55778;54.346;10.210;2023-09-08T04:09:22;17.67;;;13.00;;
68792;SDS011;55778;54.346;10.210;2023-09-08T04:11:47;16.05;;;11.52;;
68792;SDS011;55778;54.346;10.210;2023-09-08T04:14:12;16.90;;;11.82;;
68792;SDS011;55778;54.346;10.210;2023-09-08T04:16:38;15.82;;;12.48;;
68792;SDS011;55778;54.346;10.210;2023-09-08T04:19:03;15.27;;;11.70;;
68792;SDS011;55778;54.346;10.210;2023-09-08T04:21:29;17.08;;;12.77;;
68792;SDS011;55778;54.346;10.210;2023-09-08T04:23:54;15.98;;;11.73;;
68792;SDS011;55778;54.346;10.210;2023-09-08T04:26:19;18.58;;;12.70;;
68792;SDS011;55778;54.346;10.210;2023-09-08T04:28:45;20.08;;;13.10;;
68792;SDS011;55778;54.346;10.210;2023-09-08T04:31:10;19.20;;;12.48;;
68792;SDS011;55778;54.346;10.210;2023-09-08T04:33:36;16.63;;;12.65;;
68792;SDS011;55778;54.346;10.210;2023-09-08T04:36:01;22.10;;;15.80;;
68792;SDS011;55778;54.346;10.210;2023-09-08T04:38:26;22.83;;;17.17;;
68792;SDS011;55778;54.346;10.210;2023-09-08T04:40:52;23.35;;;15.50;;
68792;SDS011;55778;54.346;10.210;2023-09-08T04:43:17;27.38;;;16.02;;
68792;SDS011;55778;54.346;10.210;2023-09-08T04:45:42;19.52;;;14.52;;
68792;SDS011;55778;54.346;10.210;2023-09-08T04:48:08;21.33;;;15.07;;
68792;SDS011;55778;54.346;10.210;2023-09-08T04:50:33;22.42;;;15.07;;
68792;SDS011;55778;54.346;10.210;2023-09-08T04:52:59;18.85;;;13.77;;
68792;SDS011;55778;54.346;10.210;2023-09-08T04:55:25;18.75;;;13.43;;
68792;SDS011;55778;54.346;10.210;2023-09-08T04:57:50;17.05;;;13.07;;
68792;SDS011;55778;54.346;10.210;2023-09-08T05:00:16;19.42;;;13.75;;
68792;SDS011;55778;54.346;10.210;2023-09-08T05:02:41;20.60;;;13.48;;
68792;SDS011;55778;54.346;10.210;2023-09-08T05:05:07;20.05;;;13.23;;
68792;SDS011;55778;54.346;10.210;2023-09-08T05:07:32;22.23;;;14.52;;
68792;SDS011;55778;54.346;10.210;2023-09-08T05:09:58;20.20;;;15.93;;
68792;SDS011;55778;54.346;10.210;2023-09-08T05:12:24;24.55;;;16.65;;
68792;SDS011;55778;54.346;10.210;2023-09-08T05:14:49;20.90;;;14.68;;
68792;SDS011;55778;54.346;10.210;2023-09-08T05:17:20;20.02;;;14.50;;
68792;SDS011;55778;54.346;10.210;2023-09-08T05:19:46;19.05;;;13.38;;
68792;SDS011;55778;54.346;10.210;2023-09-08T05:22:11;19.55;;;13.32;;
68792;SDS011;55778;54.346;10.210;2023-09-08T05:24:37;17.90;;;12.63;;
68792;SDS011;55778;54.346;10.210;2023-09-08T05:27:02;23.77;;;12.35;;
68792;SDS011;55778;54.346;10.210;2023-09-08T05:29:28;17.20;;;12.40;;
68792;SDS011;55778;54.346;10.210;2023-09-08T05:31:53;15.18;;;11.77;;
68792;SDS011;55778;54.346;10.210;2023-09-08T05:34:18;16.52;;;11.40;;
68792;SDS011;55778;54.346;10.210;2023-09-08T05:36:44;15.57;;;11.68;;
68792;SDS011;55778;54.346;10.210;2023-09-08T05:39:09;14.40;;;9.90;;
68792;SDS011;55778;54.346;10.210;2023-09-08T05:41:35;13.48;;;10.32;;
68792;SDS011;55778;54.346;10.210;2023-09-08T05:44:01;13.75;;;9.90;;
68792;SDS011;55778;54.346;10.210;2023-09-08T05:46:26;15.48;;;10.23;;
68792;SDS011;55778;54.346;10.210;2023-09-08T05:48:52;12.52;;;9.63;;
68792;SDS011;55778;54.346;10.210;2023-09-08T05:51:17;13.30;;;9.63;;
68792;SDS011;55778;54.346;10.210;2023-09-08T05:53:43;12.15;;;9.40;;
68792;SDS011;55778;54.346;10.210;2023-09-08T05:56:08;18.77;;;11.43;;
68792;SDS011;55778;54.346;10.210;2023-09-08T05:58:34;14.05;;;9.93;;
68792;SDS011;55778;54.346;10.210;2023-09-08T06:01:01;12.60;;;8.85;;
68792;SDS011;55778;54.346;10.210;2023-09-08T06:03:27;12.80;;;8.63;;
68792;SDS011;55778;54.346;10.210;2023-09-08T06:05:52;10.90;;;8.48;;
68792;SDS011;55778;54.346;10.210;2023-09-08T06:08:18;10.60;;;8.48;;
68792;SDS011;55778;54.346;10.210;2023-09-08T06:10:43;12.63;;;8.10;;
68792;SDS011;55778;54.346;10.210;2023-09-08T06:13:08;13.15;;;8.40;;
68792;SDS011;55778;54.346;10.210;2023-09-08T06:15:34;12.65;;;9.30;;
68792;SDS011;55778;54.346;10.210;2023-09-08T06:17:59;13.95;;;7.97;;
68792;SDS011;55778;54.346;10.210;2023-09-08T06:20:25;15.25;;;7.05;;
68792;SDS011;55778;54.346;10.210;2023-09-08T06:22:51;12.55;;;7.78;;
68792;SDS011;55778;54.346;10.210;2023-09-08T06:25:17;11.32;;;7.07;;
68792;SDS011;55778;54.346;10.210;2023-09-08T06:27:42;11.10;;;6.65;;
68792;SDS011;55778;54.346;10.210;2023-09-08T06:30:08;9.18;;;6.60;;
68792;SDS011;55778;54.346;10.210;2023-09-08T06:32:33;7.85;;;6.10;;
68792;SDS011;55778;54.346;10.210;2023-09-08T06:34:59;8.60;;;6.40;;
68792;SDS011;55778;54.346;10.210;2023-09-08T06:37:24;6.63;;;5.75;;
68792;SDS011;55778;54.346;10.210;2023-09-08T06:39:50;8.07;;;5.90;;
68792;SDS011;55778;54.346;10.210;2023-09-08T06:42:15;7.97;;;5.80;;
68792;SDS011;55778;54.346;10.210;2023-09-08T06:44:40;7.30;;;5.88;;
68792;SDS011;55778;54.346;10.210;2023-09-08T06:47:06;7.32;;;5.43;;
68792;SDS011;55778;54.346;10.210;2023-09-08T06:49:32;7.30;;;6.15;;
68792;SDS011;55778;54.346;10.210;2023-09-08T06:51:57;10.93;;;7.15;;
68792;SDS011;55778;54.346;10.210;2023-09-08T06:54:23;9.65;;;6.35;;
68792;SDS011;55778;54.346;10.210;2023-09-08T06:56:48;7.75;;;6.03;;
68792;SDS011;55778;54.346;10.210;2023-09-08T06:59:14;8.02;;;5.88;;
68792;SDS011;55778;54.346;10.210;2023-09-08T07:01:39;6.47;;;5.50;;
68792;SDS011;55778;54.346;10.210;2023-09-08T07:04:05;7.70;;;5.63;;
68792;SDS011;55778;54.346;10.210;2023-09-08T07:06:30;8.75;;;6.40;;
68792;SDS011;55778;54.346;10.210;2023-09-08T07:08:56;6.43;;;5.70;;
68792;SDS011;55778;54.346;10.210;2023-09-08T07:11:21;9.27;;;5.90;;
68792;SDS011;55778;54.346;10.210;2023-09-08T07:13:46;8.30;;;5.80;;
68792;SDS011;55778;54.346;10.210;2023-09-08T07:16:12;7.55;;;5.80;;
68792;SDS011;55778;54.346;10.210;2023-09-08T07:18:37;7.60;;;5.88;;
68792;SDS011;55778;54.346;10.210;2023-09-08T07:21:03;10.02;;;5.03;;
68792;SDS011;55778;54.346;10.210;2023-09-08T07:23:29;8.38;;;5.15;;
68792;SDS011;55778;54.346;10.210;2023-09-08T07:25:54;7.32;;;5.65;;
68792;SDS011;55778;54.346;10.210;2023-09-08T07:28:20;8.98;;;5.55;;
68792;SDS011;55778;54.346;10.210;2023-09-08T07:30:45;7.63;;;5.10;;
68792;SDS011;55778;54.346;10.210;2023-09-08T07:33:12;10.27;;;6.07;;
68792;SDS011;55778;54.346;10.210;2023-09-08T07:35:38;8.00;;;5.47;;
68792;SDS011;55778;54.346;10.210;2023-09-08T07:38:04;8.25;;;5.82;;
68792;SDS011;55778;54.346;10.210;2023-09-08T07:40:31;10.27;;;5.43;;
68792;SDS011;55778;54.346;10.210;2023-09-08T07:42:57;9.05;;;5.68;;
68792;SDS011;55778;54.346;10.210;2023-09-08T07:45:22;7.93;;;5.43;;
68792;SDS011;55778;54.346;10.210;2023-09-08T07:47:48;8.25;;;5.65;;
68792;SDS011;55778;54.346;10.210;2023-09-08T07:52:47;8.98;;;5.43;;
68792;SDS011;55778;54.346;10.210;2023-09-08T07:55:13;6.70;;;5.53;;
68792;SDS011;55778;54.346;10.210;2023-09-08T07:57:41;10.40;;;5.43;;
68792;SDS011;55778;54.346;10.210;2023-09-08T08:00:11;9.38;;;5.90;;
68792;SDS011;55778;54.346;10.210;2023-09-08T08:02:47;9.63;;;5.90;;
68792;SDS011;55778;54.346;10.210;2023-09-08T08:05:14;6.85;;;5.18;;
68792;SDS011;55778;54.346;10.210;2023-09-08T08:07:41;6.88;;;5.40;;
68792;SDS011;55778;54.346;10.210;2023-09-08T08:10:07;6.85;;;5.45;;
68792;SDS011;55778;54.346;10.210;2023-09-08T08:12:33;9.15;;;5.63;;
68792;SDS011;55778;54.346;10.210;2023-09-08T08:14:59;6.18;;;4.97;;
68792;SDS011;55778;54.346;10.210;2023-09-08T08:17:24;8.10;;;5.78;;
68792;SDS011;55778;54.346;10.210;2023-09-08T08:19:51;6.45;;;5.05;;
68792;SDS011;55778;54.346;10.210;2023-09-08T08:22:17;8.13;;;5.45;;
68792;SDS011;55778;54.346;10.210;2023-09-08T08:24:42;7.03;;;5.15;;
68792;SDS011;55778;54.346;10.210;2023-09-08T08:27:08;7.32;;;5.57;;
68792;SDS011;55778;54.346;10.210;2023-09-08T08:29:34;8.93;;;5.47;;
68792;SDS011;55778;54.346;10.210;2023-09-08T08:31:59;9.02;;;5.30;;
68792;SDS011;55778;54.346;10.210;2023-09-08T08:34:24;7.47;;;5.13;;
68792;SDS011;55778;54.346;10.210;2023-09-08T08:36:50;6.63;;;5.28;;
68792;SDS011;55778;54.346;10.210;2023-09-08T08:39:15;7.40;;;5.38;;
68792;SDS011;55778;54.346;10.210;2023-09-08T08:41:41;9.43;;;5.13;;
68792;SDS011;55778;54.346;10.210;2023-09-08T08:44:09;6.90;;;5.25;;
68792;SDS011;55778;54.346;10.210;2023-09-08T08:46:35;7.70;;;5.40;;
68792;SDS011;55778;54.346;10.210;2023-09-08T08:49:05;8.25;;;5.38;;
68792;SDS011;55778;54.346;10.210;2023-09-08T08:51:31;7.72;;;5.30;;
68792;SDS011;55778;54.346;10.210;2023-09-08T08:53:57;5.95;;;4.93;;
68792;SDS011;55778;54.346;10.210;2023-09-08T08:58:51;7.35;;;4.95;;
68792;SDS011;55778;54.346;10.210;2023-09-08T09:01:16;10.80;;;5.40;;
68792;SDS011;55778;54.346;10.210;2023-09-08T09:03:47;9.80;;;5.30;;
68792;SDS011;55778;54.346;10.210;2023-09-08T09:06:14;5.63;;;5.03;;
68792;SDS011;55778;54.346;10.210;2023-09-08T09:08:40;9.25;;;5.30;;
68792;SDS011;55778;54.346;10.210;2023-09-08T09:11:08;6.97;;;5.18;;
68792;SDS011;55778;54.346;10.210;2023-09-08T09:13:33;7.00;;;5.35;;
68792;SDS011;55778;54.346;10.210;2023-09-08T09:16:00;7.13;;;5.20;;
68792;SDS011;55778;54.346;10.210;2023-09-08T09:18:28;7.05;;;5.40;;
68792;SDS011;55778;54.346;10.210;2023-09-08T09:20:58;6.15;;;5.30;;
68792;SDS011;55778;54.346;10.210;2023-09-08T09:23:31;7.47;;;5.10;;
68792;SDS011;55778;54.346;10.210;2023-09-08T09:25:58;6.63;;;5.28;;
68792;SDS011;55778;54.346;10.210;2023-09-08T09:28:25;6.97;;;4.85;;
68792;SDS011;55778;54.346;10.210;2023-09-08T09:30:52;6.40;;;4.90;;
68792;SDS011;55778;54.346;10.210;2023-09-08T09:33:21;7.45;;;4.78;;
68792;SDS011;55778;54.346;10.210;2023-09-08T09:38:17;5.57;;;4.60;;
68792;SDS011;55778;54.346;10.210;2023-09-08T09:40:44;6.72;;;4.95;;
68792;SDS011;55778;54.346;10.210;2023-09-08T09:43:09;6.75;;;4.93;;
68792;SDS011;55778;54.346;10.210;2023-09-08T09:45:36;6.55;;;4.65;;
68792;SDS011;55778;54.346;10.210;2023-09-08T09:48:03;6.43;;;5.03;;
68792;SDS011;55778;54.346;10.210;2023-09-08T09:50:36;7.63;;;4.97;;
68792;SDS011;55778;54.346;10.210;2023-09-08T09:53:13;7.82;;;4.75;;
68792;SDS011;55778;54.346;10.210;2023-09-08T09:55:40;6.78;;;4.65;;
68792;SDS011;55778;54.346;10.210;2023-09-08T09:58:07;7.13;;;4.85;;
68792;SDS011;55778;54.346;10.210;2023-09-08T10:00:33;6.63;;;4.78;;
68792;SDS011;55778;54.346;10.210;2023-09-08T10:03:00;8.73;;;4.43;;
68792;SDS011;55778;54.346;10.210;2023-09-08T10:05:26;6.30;;;4.35;;
68792;SDS011;55778;54.346;10.210;2023-09-08T10:07:55;5.45;;;4.20;;
68792;SDS011;55778;54.346;10.210;2023-09-08T10:10:24;6.68;;;4.45;;
68792;SDS011;55778;54.346;10.210;2023-09-08T10:12:52;5.55;;;4.63;;
68792;SDS011;55778;54.346;10.210;2023-09-08T10:15:22;6.72;;;4.53;;
68792;SDS011;55778;54.346;10.210;2023-09-08T10:17:53;9.77;;;4.78;;
68792;SDS011;55778;54.346;10.210;2023-09-08T10:20:23;5.97;;;4.40;;
68792;SDS011;55778;54.346;10.210;2023-09-08T10:22:52;5.57;;;4.80;;
68792;SDS011;55778;54.346;10.210;2023-09-08T10:25:23;9.48;;;7.50;;
68792;SDS011;55778;54.346;10.210;2023-09-08T10:27:50;6.25;;;4.60;;
68792;SDS011;55778;54.346;10.210;2023-09-08T10:30:16;5.75;;;4.57;;
68792;SDS011;55778;54.346;10.210;2023-09-08T10:32:42;4.95;;;4.30;;
68792;SDS011;55778;54.346;10.210;2023-09-08T10:35:08;5.60;;;4.22;;
68792;SDS011;55778;54.346;10.210;2023-09-08T10:37:35;6.90;;;4.30;;
68792;SDS011;55778;54.346;10.210;2023-09-08T10:42:44;4.25;;;3.78;;
68792;SDS011;55778;54.346;10.210;2023-09-08T10:45:17;6.28;;;4.50;;
68792;SDS011;55778;54.346;10.210;2023-09-08T10:50:18;6.57;;;3.88;;
68792;SDS011;55778;54.346;10.210;2023-09-08T10:52:44;5.55;;;3.95;;
68792;SDS011;55778;54.346;10.210;2023-09-08T10:55:11;4.47;;;4.00;;
68792;SDS011;55778;54.346;10.210;2023-09-08T10:57:46;5.47;;;3.80;;
68792;SDS011;55778;54.346;10.210;2023-09-08T11:00:17;5.50;;;4.03;;
68792;SDS011;55778;54.346;10.210;2023-09-08T11:02:49;6.35;;;4.38;;
68792;SDS011;55778;54.346;10.210;2023-09-08T11:05:19;5.10;;;3.80;;
68792;SDS011;55778;54.346;10.210;2023-09-08T11:07:47;5.85;;;3.83;;
68792;SDS011;55778;54.346;10.210;2023-09-08T11:10:17;5.50;;;3.95;;
68792;SDS011;55778;54.346;10.210;2023-09-08T11:12:43;8.63;;;3.60;;
68792;SDS011;55778;54.346;10.210;2023-09-08T11:15:08;4.13;;;3.50;;
68792;SDS011;55778;54.346;10.210;2023-09-08T11:17:34;7.85;;;6.28;;
68792;SDS011;55778;54.346;10.210;2023-09-08T11:20:04;4.65;;;3.67;;
68792;SDS011;55778;54.346;10.210;2023-09-08T11:22:35;6.35;;;3.88;;
68792;SDS011;55778;54.346;10.210;2023-09-08T11:25:02;5.78;;;3.80;;
68792;SDS011;55778;54.346;10.210;2023-09-08T11:27:31;5.55;;;4.10;;
68792;SDS011;55778;54.346;10.210;2023-09-08T11:29:56;7.30;;;4.00;;
68792;SDS011;55778;54.346;10.210;2023-09-08T11:32:23;7.45;;;4.07;;
68792;SDS011;55778;54.346;10.210;2023-09-08T11:34:49;4.88;;;4.32;;
68792;SDS011;55778;54.346;10.210;2023-09-08T11:37:17;10.55;;;9.15;;
68792;SDS011;55778;54.346;10.210;2023-09-08T11:39:44;6.88;;;4.20;;
68792;SDS011;55778;54.346;10.210;2023-09-08T11:42:14;6.47;;;4.18;;
68792;SDS011;55778;54.346;10.210;2023-09-08T11:44:40;5.97;;;4.00;;
68792;SDS011;55778;54.346;10.210;2023-09-08T11:47:07;6.70;;;3.92;;
68792;SDS011;55778;54.346;10.210;2023-09-08T11:49:37;4.90;;;4.00;;
68792;SDS011;55778;54.346;10.210;2023-09-08T11:52:04;4.47;;;3.80;;
68792;SDS011;55778;54.346;10.210;2023-09-08T11:54:31;7.28;;;4.50;;
68792;SDS011;55778;54.346;10.210;2023-09-08T11:57:00;5.15;;;4.53;;
68792;SDS011;55778;54.346;10.210;2023-09-08T11:59:27;6.85;;;4.68;;
68792;SDS011;55778;54.346;10.210;2023-09-08T12:01:55;5.95;;;4.22;;
68792;SDS011;55778;54.346;10.210;2023-09-08T12:04:21;6.20;;;4.50;;
68792;SDS011;55778;54.346;10.210;2023-09-08T12:06:51;5.63;;;4.20;;
68792;SDS011;55778;54.346;10.210;2023-09-08T12:09:18;9.32;;;4.60;;
68792;SDS011;55778;54.346;10.210;2023-09-08T12:11:45;6.80;;;4.57;;
68792;SDS011;55778;54.346;10.210;2023-09-08T12:14:11;9.48;;;7.82;;
68792;SDS011;55778;54.346;10.210;2023-09-08T12:19:05;8.38;;;4.47;;
68792;SDS011;55778;54.346;10.210;2023-09-08T12:21:31;5.00;;;4.30;;
68792;SDS011;55778;54.346;10.210;2023-09-08T12:23:57;5.70;;;4.60;;
68792;SDS011;55778;54.346;10.210;2023-09-08T12:26:26;5.75;;;4.38;;
68792;SDS011;55778;54.346;10.210;2023-09-08T12:28:52;5.35;;;4.45;;
68792;SDS011;55778;54.346;10.210;2023-09-08T12:31:18;5.72;;;4.57;;
68792;SDS011;55778;54.346;10.210;2023-09-08T12:33:43;5.72;;;4.90;;
68792;SDS011;55778;54.346;10.210;2023-09-08T12:36:13;6.15;;;4.68;;
68792;SDS011;55778;54.346;10.210;2023-09-08T12:38:40;6.50;;;4.43;;
68792;SDS011;55778;54.346;10.210;2023-09-08T12:41:05;7.18;;;4.82;;
68792;SDS011;55778;54.346;10.210;2023-09-08T12:43:31;5.25;;;4.47;;
68792;SDS011;55778;54.346;10.210;2023-09-08T12:45:56;4.80;;;4.03;;
68792;SDS011;55778;54.346;10.210;2023-09-08T12:48:22;6.70;;;4.72;;
68792;SDS011;55778;54.346;10.210;2023-09-08T12:50:48;6.60;;;5.00;;
68792;SDS011;55778;54.346;10.210;2023-09-08T12:53:14;15.30;;;12.52;;
68792;SDS011;55778;54.346;10.210;2023-09-08T12:55:41;6.88;;;4.72;;
68792;SDS011;55778;54.346;10.210;2023-09-08T12:58:07;6.15;;;4.38;;
68792;SDS011;55778;54.346;10.210;2023-09-08T13:00:33;7.25;;;4.72;;
68792;SDS011;55778;54.346;10.210;2023-09-08T13:02:58;7.85;;;4.40;;
68792;SDS011;55778;54.346;10.210;2023-09-08T13:05:23;6.70;;;4.60;;
68792;SDS011;55778;54.346;10.210;2023-09-08T13:07:49;9.60;;;5.03;;
68792;SDS011;55778;54.346;10.210;2023-09-08T13:10:14;6.43;;;4.55;;
68792;SDS011;55778;54.346;10.210;2023-09-08T13:12:41;5.68;;;4.32;;
68792;SDS011;55778;54.346;10.210;2023-09-08T13:15:07;10.20;;;4.38;;
68792;SDS011;55778;54.346;10.210;2023-09-08T13:17:33;8.10;;;4.60;;
68792;SDS011;55778;54.346;10.210;2023-09-08T13:19:58;6.03;;;4.40;;
68792;SDS011;55778;54.346;10.210;2023-09-08T13:22:23;7.57;;;4.60;;
68792;SDS011;55778;54.346;10.210;2023-09-08T13:24:49;5.45;;;4.70;;
68792;SDS011;55778;54.346;10.210;2023-09-08T13:27:14;7.05;;;4.47;;
68792;SDS011;55778;54.346;10.210;2023-09-08T13:29:42;6.00;;;4.63;;
68792;SDS011;55778;54.346;10.210;2023-09-08T13:32:08;8.93;;;4.60;;
68792;SDS011;55778;54.346;10.210;2023-09-08T13:34:33;8.65;;;4.30;;
68792;SDS011;55778;54.346;10.210;2023-09-08T13:36:59;7.05;;;4.50;;
68792;SDS011;55778;54.346;10.210;2023-09-08T13:39:25;6.30;;;4.28;;
68792;SDS011;55778;54.346;10.210;2023-09-08T13:41:54;6.43;;;4.25;;
68792;SDS011;55778;54.346;10.210;2023-09-08T13:44:22;6.65;;;4.03;;
68792;SDS011;55778;54.346;10.210;2023-09-08T13:46:49;6.10;;;4.32;;
68792;SDS011;55778;54.346;10.210;2023-09-08T13:49:18;4.45;;;4.05;;
68792;SDS011;55778;54.346;10.210;2023-09-08T13:51:44;10.57;;;4.40;;
68792;SDS011;55778;54.346;10.210;2023-09-08T13:54:10;5.82;;;4.18;;
68792;SDS011;55778;54.346;10.210;2023-09-08T13:56:38;5.78;;;4.13;;
68792;SDS011;55778;54.346;10.210;2023-09-08T13:59:04;4.60;;;3.80;;
68792;SDS011;55778;54.346;10.210;2023-09-08T14:01:30;5.43;;;4.32;;
68792;SDS011;55778;54.346;10.210;2023-09-08T14:03:58;6.13;;;4.30;;
68792;SDS011;55778;54.346;10.210;2023-09-08T14:06:25;8.10;;;4.45;;
68792;SDS011;55778;54.346;10.210;2023-09-08T14:08:51;6.43;;;4.32;;
68792;SDS011;55778;54.346;10.210;2023-09-08T14:11:16;9.55;;;3.80;;
68792;SDS011;55778;54.346;10.210;2023-09-08T14:13:41;6.43;;;3.92;;
68792;SDS011;55778;54.346;10.210;2023-09-08T14:16:08;5.18;;;3.80;;
68792;SDS011;55778;54.346;10.210;2023-09-08T14:18:33;6.72;;;4.60;;
68792;SDS011;55778;54.346;10.210;2023-09-08T14:20:59;6.97;;;4.43;;
68792;SDS011;55778;54.346;10.210;2023-09-08T14:23:25;8.63;;;4.20;;
68792;SDS011;55778;54.346;10.210;2023-09-08T14:25:51;7.72;;;4.10;;
68792;SDS011;55778;54.346;10.210;2023-09-08T14:28:16;6.32;;;4.43;;
68792;SDS011;55778;54.346;10.210;2023-09-08T14:30:41;5.60;;;4.40;;
68792;SDS011;55778;54.346;10.210;2023-09-08T14:33:07;5.03;;;3.80;;
68792;SDS011;55778;54.346;10.210;2023-09-08T14:35:32;8.13;;;4.38;;
68792;SDS011;55778;54.346;10.210;2023-09-08T14:37:58;6.25;;;3.90;;